X  Fechar Dados meteorológicos de METAR da aviação     LGRX Patras Araxos Agamemnon Airport
Temperatura
27°C Temperatura
23°C Ponto de orvalho
79% Umidade



Vento
5 KM/H
3 MPH
1 M/S
3 NÓS



Calmo
N
Condições atuais

Limpo Limpo
Pressão 1008.81 (hPa) - 29.79 (inHg)
Visibilidade 6 (milha) - 9.7 (km)
Aeroporto
Código do aeroporto LGRX

Localização: Patras Araxos Agamemnon Airport
Distância: 108 (km)

Metar:
LGRX 141950Z VRB03KT CAVOK 27/23 Q1009

Hora: 14-07-2024 22:50 EEST